58CL weather

Borrego Air Ranch Airport
Borrego Springs, California, United States

Public forecast

Using degrees Fahrenheit for public forecast. Weather courtesy of forecast.io.

METAR (pilot weather report)

Closest report is Jacqueline Cochran Regional Airport, 26.8 nm (49.6 km) NNE. Retrieved 2019/06/17 07:52 UTC (52 minutes ago):

KTRM 170752Z AUTO 30010KT 10SM CLR 27/13 A2965 RMK AO2 SLP044 T02670133 404000228 $

TAF (pilot weather forecast)

Closest forecast is Jacqueline Cochran Regional Airport, 26.8 nm (49.6 km) NNE. Retrieved 2019/06/17 06:22 UTC (2 hours ago):

TAF KTRM 170520Z 1706/1806 33011KT P6SM SKC FM171200 VRB05KT P6SM SKC FM171900 14010KT P6SM SKC FM180200 33012G22KT P6SM SKC